Hagarstown, Illinois
Current Conditions -  °F | °C
As of 3:15 PM on Wednesday 26 Nov 2014 (Local Time) from KENL Reporting Station
Light Snow Light Snow  
Wind Chill: 28°   Ceiling: 1700
Heat Index: 34°   Visibility: 2mi
Dew Point: 31°   Wind: 7mph
Humidity: 87%   Direction: 90°E
Pressure: 30"   Gusts: NA
Location:  38.94°N, 89.17°W
Report Text: KENL 262115Z AUTO 09006KT 2SM -SN BKN017 OVC025 01/M01 A3000 RMK AO2 T00131007
Loading
Personal Weather Stations






























Interactive Weather Map New forecast layout! Learn more

10-Day Weather Forecast

Advertisements
Track Severe Weather on mobile